Time;durP1;ratioP1;P1;durP2;ratioP2;P2;SDS_P1;SDS_P2;PMS_P1;PMS_P2;Temp;Humidity;BMP_temperature;BMP_pressure;BME280_temperature;BME280_humidity;BME280_pressure;Samples;Min_cycle;Max_cycle;Signal;HPM_P1;HPM_P2
2023/07/21 00:01:07;;;;;;;0.90;0.85;;;20.80;62.80;;;;;;4953371;28;20038;-58
2023/07/21 00:03:33;;;;;;;2.38;0.90;;;20.70;62.70;;;;;;4960847;28;20134;-58
2023/07/21 00:06:06;;;;;;;0.85;0.85;;;20.70;62.70;;;;;;4951174;28;20126;-58
2023/07/21 00:08:36;;;;;;;1.02;0.93;;;20.70;62.70;;;;;;4964317;28;20046;-59
2023/07/21 00:11:01;;;;;;;1.73;1.38;;;20.70;62.70;;;;;;4957412;28;20045;-60
2023/07/21 00:13:28;;;;;;;1.05;0.90;;;20.70;62.70;;;;;;4940861;28;20501;-59
2023/07/21 00:15:54;;;;;;;1.25;1.15;;;20.70;62.70;;;;;;4957952;28;20125;-60
2023/07/21 00:18:21;;;;;;;1.27;0.90;;;20.70;62.70;;;;;;4954227;28;20031;-59
2023/07/21 00:20:47;;;;;;;3.60;1.02;;;20.70;62.70;;;;;;4961684;28;20089;-59
2023/07/21 00:23:13;;;;;;;0.85;0.80;;;20.70;62.70;;;;;;4956469;28;20673;-59
2023/07/21 00:25:39;;;;;;;0.70;0.70;;;20.70;62.70;;;;;;4955896;28;20050;-59
2023/07/21 00:28:05;;;;;;;1.65;0.98;;;20.70;62.70;;;;;;4963442;28;20138;-59
2023/07/21 00:30:31;;;;;;;1.73;1.42;;;20.70;62.70;;;;;;4955981;28;20030;-59
2023/07/21 00:32:57;;;;;;;1.35;0.95;;;20.60;63.40;;;;;;4967444;28;20035;-59
2023/07/21 00:35:23;;;;;;;1.20;1.10;;;20.60;62.70;;;;;;4967357;28;20118;-59
2023/07/21 00:37:48;;;;;;;1.27;0.85;;;20.60;62.80;;;;;;4960220;28;20094;-59
2023/07/21 00:40:18;;;;;;;1.10;1.00;;;20.60;62.70;;;;;;4953390;28;20613;-59
2023/07/21 00:42:45;;;;;;;1.13;1.02;;;20.60;62.70;;;;;;4958529;28;20035;-59
2023/07/21 00:45:14;;;;;;;1.15;1.05;;;20.60;62.70;;;;;;4946788;28;20424;-59
2023/07/21 00:47:40;;;;;;;1.48;1.00;;;20.60;62.60;;;;;;4949067;28;20444;-59
2023/07/21 00:50:06;;;;;;;0.90;0.90;;;20.60;63.20;;;;;;4964849;28;20411;-59
2023/07/21 00:52:32;;;;;;;1.30;1.00;;;20.60;62.50;;;;;;4952263;28;20027;-59
2023/07/21 00:54:57;;;;;;;1.00;1.00;;;20.60;62.50;;;;;;4958358;28;20031;-59
2023/07/21 00:57:24;;;;;;;1.38;1.00;;;20.60;62.40;;;;;;4960883;28;20026;-59
2023/07/21 00:59:50;;;;;;;1.30;1.20;;;20.60;62.40;;;;;;4961653;28;20190;-57
2023/07/21 01:02:17;;;;;;;1.02;0.93;;;20.60;63.00;;;;;;4962973;28;20632;-59
2023/07/21 01:04:44;;;;;;;2.00;0.90;;;20.60;62.40;;;;;;4959778;28;20503;-59
2023/07/21 01:07:10;;;;;;;1.10;0.82;;;20.50;62.30;;;;;;4962489;28;20057;-59
2023/07/21 01:09:38;;;;;;;1.58;1.10;;;20.60;62.40;;;;;;4963178;28;20031;-59
2023/07/21 01:12:05;;;;;;;1.30;1.20;;;20.60;62.30;;;;;;4963339;28;20535;-57
2023/07/21 01:14:31;;;;;;;1.25;1.00;;;20.50;62.20;;;;;;4957710;28;20037;-59
2023/07/21 01:16:58;;;;;;;1.75;1.20;;;20.60;62.40;;;;;;4959080;28;20118;-58
2023/07/21 01:19:26;;;;;;;1.05;1.05;;;20.50;62.30;;;;;;4948096;28;20050;-58
2023/07/21 01:21:58;;;;;;;1.20;1.10;;;20.50;62.30;;;;;;4958065;28;20035;-60
2023/07/21 01:24:29;;;;;;;1.33;1.10;;;20.50;62.30;;;;;;4961654;28;20033;-59
2023/07/21 01:26:56;;;;;;;2.08;1.10;;;20.50;62.30;;;;;;4951768;28;20046;-60
2023/07/21 01:29:23;;;;;;;1.08;1.00;;;20.50;62.30;;;;;;4947469;28;20030;-59
2023/07/21 01:31:50;;;;;;;1.50;1.40;;;20.50;62.30;;;;;;4961106;28;20039;-59
2023/07/21 01:34:16;;;;;;;1.30;0.95;;;20.50;62.20;;;;;;4961437;28;20038;-59
2023/07/21 01:36:43;;;;;;;1.10;1.10;;;20.50;62.20;;;;;;4960372;28;20039;-60
2023/07/21 01:39:08;;;;;;;1.20;1.10;;;20.50;62.20;;;;;;4956750;28;20263;-60
2023/07/21 01:41:35;;;;;;;1.08;1.00;;;20.50;62.20;;;;;;4964132;28;20122;-57
2023/07/21 01:44:01;;;;;;;1.17;1.08;;;20.40;62.10;;;;;;4962530;28;20035;-59
2023/07/21 01:46:27;;;;;;;1.20;1.10;;;20.40;62.70;;;;;;4964212;28;20030;-59
2023/07/21 01:48:52;;;;;;;0.85;0.80;;;20.40;62.00;;;;;;4959996;28;20042;-60
2023/07/21 01:51:20;;;;;;;1.30;1.20;;;20.40;62.00;;;;;;4962945;28;20041;-58
2023/07/21 01:53:55;;;;;;;2.05;1.10;;;20.40;62.00;;;;;;4964549;28;20114;-59
2023/07/21 01:56:42;;;;;;;1.25;1.15;;;20.50;62.10;;;;;;4938135;28;20031;-60
2023/07/21 01:59:10;;;;;;;1.13;1.10;;;20.40;62.10;;;;;;4963182;28;20054;-59
2023/07/21 02:01:37;;;;;;;1.73;1.00;;;20.40;62.00;;;;;;4951182;28;20118;-59
2023/07/21 02:04:04;;;;;;;1.25;1.15;;;20.40;62.00;;;;;;4957453;28;20073;-58
2023/07/21 02:06:31;;;;;;;1.23;1.10;;;20.40;62.00;;;;;;4944712;28;20027;-59
2023/07/21 02:08:57;;;;;;;1.20;1.10;;;20.40;62.00;;;;;;4954138;28;20496;-58
2023/07/21 02:11:23;;;;;;;1.13;0.82;;;20.40;62.00;;;;;;4949547;28;20043;-58
2023/07/21 02:13:48;;;;;;;2.22;1.17;;;20.40;61.90;;;;;;4960389;28;20110;-59
2023/07/21 02:16:14;;;;;;;1.35;1.25;;;20.40;62.00;;;;;;4958958;28;20127;-60
2023/07/21 02:18:41;;;;;;;1.20;1.10;;;20.40;61.90;;;;;;4949283;28;20042;-60
2023/07/21 02:21:07;;;;;;;1.02;0.93;;;20.30;61.80;;;;;;4961164;28;20507;-60
2023/07/21 02:23:33;;;;;;;1.10;0.88;;;20.30;61.80;;;;;;4950810;28;20070;-60
2023/07/21 02:25:58;;;;;;;1.38;1.27;;;20.30;61.80;;;;;;4964186;28;20039;-60
2023/07/21 02:28:24;;;;;;;1.38;1.20;;;20.30;61.80;;;;;;4959676;28;20043;-59
2023/07/21 02:31:03;;;;;;;1.80;0.90;;;20.30;61.80;;;;;;4951951;28;20046;-59
2023/07/21 02:33:33;;;;;;;2.33;1.00;;;20.40;61.80;;;;;;4957513;28;20444;-59
2023/07/21 02:36:00;;;;;;;1.15;1.00;;;20.40;61.80;;;;;;4943446;28;20036;-59
2023/07/21 02:38:26;;;;;;;2.20;1.17;;;20.30;61.80;;;;;;4954591;28;20495;-59
2023/07/21 02:40:52;;;;;;;0.93;0.90;;;20.30;61.80;;;;;;4960648;28;20027;-59
2023/07/21 02:43:18;;;;;;;1.65;1.30;;;20.30;61.80;;;;;;4960843;28;20641;-59
2023/07/21 02:45:54;;;;;;;2.10;1.00;;;20.30;61.90;;;;;;4946451;28;20117;-59
2023/07/21 02:48:20;;;;;;;2.17;1.10;;;20.30;61.90;;;;;;4965598;28;20026;-64
2023/07/21 02:50:51;;;;;;;1.27;1.17;;;20.30;62.00;;;;;;4961128;28;20039;-59
2023/07/21 02:53:18;;;;;;;1.42;0.90;;;20.30;61.90;;;;;;4960047;28;20121;-59
2023/07/21 02:55:44;;;;;;;1.45;0.90;;;20.30;61.90;;;;;;4961322;28;20552;-62
2023/07/21 02:58:12;;;;;;;1.88;1.27;;;20.30;61.90;;;;;;4968654;28;20039;-59
2023/07/21 03:00:39;;;;;;;2.70;1.17;;;20.30;61.90;;;;;;4958190;28;20030;-60
2023/07/21 03:03:06;;;;;;;2.92;1.38;;;20.30;61.80;;;;;;4943065;28;20035;-59
2023/07/21 03:05:32;;;;;;;2.55;1.17;;;20.20;61.80;;;;;;4949575;28;20102;-59
2023/07/21 03:07:59;;;;;;;1.05;1.00;;;20.30;61.80;;;;;;4953750;28;20035;-60
2023/07/21 03:10:24;;;;;;;1.58;1.10;;;20.30;61.70;;;;;;4965964;28;20203;-60
2023/07/21 03:12:50;;;;;;;2.10;1.30;;;20.20;61.70;;;;;;4965197;28;20131;-60
2023/07/21 03:15:15;;;;;;;1.20;1.10;;;20.20;61.70;;;;;;4960903;28;20418;-59
2023/07/21 03:17:41;;;;;;;1.10;1.00;;;20.20;61.70;;;;;;4941702;28;20031;-59
2023/07/21 03:20:11;;;;;;;1.40;1.30;;;20.20;61.70;;;;;;4962172;28;20023;-60
2023/07/21 03:22:37;;;;;;;1.33;1.23;;;20.20;61.70;;;;;;4959592;28;20043;-58
2023/07/21 03:25:06;;;;;;;1.35;1.25;;;20.20;61.80;;;;;;4945269;28;20521;-59
2023/07/21 03:27:35;;;;;;;2.08;1.20;;;20.20;61.80;;;;;;4958149;28;20219;-60
2023/07/21 03:30:04;;;;;;;1.25;1.15;;;20.20;61.90;;;;;;4946828;28;20031;-60
2023/07/21 03:32:29;;;;;;;1.10;1.00;;;20.20;61.90;;;;;;4946874;28;20027;-58
2023/07/21 03:34:55;;;;;;;1.40;1.30;;;20.20;61.80;;;;;;4949342;28;20512;-59
2023/07/21 03:37:25;;;;;;;1.25;1.15;;;20.20;62.50;;;;;;4956089;28;20035;-59
2023/07/21 03:39:51;;;;;;;1.30;1.20;;;20.10;61.80;;;;;;4960746;28;20034;-57
2023/07/21 03:42:17;;;;;;;1.70;1.17;;;20.10;61.80;;;;;;4963882;28;20034;-59
2023/07/21 03:44:47;;;;;;;2.58;1.50;;;20.10;61.80;;;;;;4961010;28;20023;-59
2023/07/21 03:47:13;;;;;;;1.40;1.30;;;20.20;61.90;;;;;;4961878;28;20079;-59
2023/07/21 03:49:38;;;;;;;1.10;1.00;;;20.20;61.80;;;;;;5081850;23;20134;-67
2023/07/21 03:52:04;;;;;;;1.40;1.30;;;20.10;61.80;;;;;;4970282;28;20125;-67
2023/07/21 03:54:30;;;;;;;2.08;1.23;;;20.10;61.70;;;;;;4978826;28;20061;-67
2023/07/21 03:56:55;;;;;;;2.67;1.38;;;20.20;61.80;;;;;;4980663;28;20449;-67
2023/07/21 03:59:21;;;;;;;1.40;1.30;;;20.10;61.70;;;;;;4975202;28;20146;-67
2023/07/21 04:01:46;;;;;;;1.50;1.08;;;20.10;61.70;;;;;;4977893;28;20023;-67
2023/07/21 04:04:12;;;;;;;1.33;1.23;;;20.10;61.70;;;;;;4967314;28;20042;-65
2023/07/21 04:06:38;;;;;;;1.30;1.20;;;20.10;61.80;;;;;;4974585;28;20035;-65
2023/07/21 04:09:04;;;;;;;1.30;1.20;;;20.10;61.80;;;;;;4974893;28;20034;-66
2023/07/21 04:11:29;;;;;;;3.65;1.38;;;20.20;61.90;;;;;;4981430;28;20037;-67
2023/07/21 04:13:58;;;;;;;1.08;0.98;;;20.20;61.80;;;;;;4971202;28;20045;-67
2023/07/21 04:16:23;;;;;;;1.63;1.23;;;20.30;61.90;;;;;;4982436;28;20771;-67
2023/07/21 04:18:49;;;;;;;2.28;1.50;;;20.30;61.90;;;;;;4984928;28;20030;-67
2023/07/21 04:21:14;;;;;;;2.65;1.55;;;20.30;61.90;;;;;;4961909;28;20097;-67
2023/07/21 04:23:40;;;;;;;1.30;1.20;;;20.30;61.80;;;;;;4973332;28;20039;-65
2023/07/21 04:26:06;;;;;;;1.48;1.27;;;20.30;61.80;;;;;;4979161;28;20041;-67
2023/07/21 04:28:32;;;;;;;1.55;1.40;;;20.30;61.80;;;;;;4985519;28;20117;-67
2023/07/21 04:30:58;;;;;;;1.63;1.52;;;20.30;61.70;;;;;;4974932;28;20118;-66
2023/07/21 04:33:23;;;;;;;1.63;1.30;;;20.30;61.80;;;;;;4981586;28;20046;-68
2023/07/21 04:35:51;;;;;;;2.17;1.20;;;20.40;61.90;;;;;;4991026;28;20041;-67
2023/07/21 04:38:16;;;;;;;1.52;1.23;;;20.40;61.80;;;;;;4981997;28;20027;-67
2023/07/21 04:40:44;;;;;;;1.83;1.30;;;20.40;61.90;;;;;;4988599;28;20122;-67
2023/07/21 04:43:11;;;;;;;1.35;1.23;;;20.40;61.90;;;;;;4981279;28;20466;-67
2023/07/21 04:45:40;;;;;;;1.75;0.93;;;20.40;62.00;;;;;;4971831;28;20034;-66
2023/07/21 04:48:06;;;;;;;1.63;1.50;;;20.40;61.90;;;;;;4985051;28;20061;-67
2023/07/21 04:50:31;;;;;;;1.50;1.40;;;20.40;61.90;;;;;;4971488;28;20066;-64
2023/07/21 04:52:57;;;;;;;1.30;1.20;;;20.50;61.80;;;;;;4971947;28;20048;-67
2023/07/21 04:55:22;;;;;;;1.20;1.10;;;20.50;61.90;;;;;;4976269;28;20320;-67
2023/07/21 04:57:48;;;;;;;1.50;1.40;;;20.50;62.00;;;;;;4974184;28;20389;-64
2023/07/21 05:00:15;;;;;;;1.42;1.33;;;20.50;61.90;;;;;;4977817;28;20057;-67
2023/07/21 05:02:40;;;;;;;1.17;1.08;;;20.50;62.00;;;;;;4981282;28;20031;-67
2023/07/21 05:05:07;;;;;;;1.50;1.25;;;20.50;62.10;;;;;;4983796;28;20041;-67
2023/07/21 05:07:33;;;;;;;2.00;1.63;;;20.50;62.20;;;;;;4979179;28;20030;-67
2023/07/21 05:09:58;;;;;;;4.05;1.15;;;20.50;62.10;;;;;;4995206;28;20022;-67
2023/07/21 05:12:25;;;;;;;2.65;1.20;;;20.50;62.40;;;;;;4967946;28;20033;-67
2023/07/21 05:14:50;;;;;;;2.35;1.42;;;20.50;62.50;;;;;;4995357;28;20046;-67
2023/07/21 05:17:17;;;;;;;2.50;1.42;;;20.50;62.60;;;;;;4981754;28;20542;-67
2023/07/21 05:19:43;;;;;;;1.70;1.60;;;20.50;62.70;;;;;;4985096;28;20039;-68
2023/07/21 05:22:09;;;;;;;3.05;1.50;;;20.50;62.80;;;;;;4980478;28;20130;-67
2023/07/21 05:24:35;;;;;;;1.65;1.40;;;20.50;62.70;;;;;;4983386;28;20030;-67
2023/07/21 05:27:01;;;;;;;2.70;1.40;;;20.50;62.80;;;;;;4981574;28;20486;-67
2023/07/21 05:29:27;;;;;;;1.40;1.30;;;20.50;63.00;;;;;;4993180;28;20027;-67
2023/07/21 05:31:52;;;;;;;4.38;1.75;;;20.50;63.20;;;;;;4977139;28;20172;-68
2023/07/21 05:34:20;;;;;;;2.40;1.27;;;20.50;63.10;;;;;;4982592;28;20034;-67
2023/07/21 05:36:46;;;;;;;1.42;1.27;;;20.40;63.10;;;;;;4977879;28;20030;-66
2023/07/21 05:39:12;;;;;;;2.05;1.45;;;20.50;63.10;;;;;;4970102;28;20478;-66
2023/07/21 05:41:38;;;;;;;2.25;1.30;;;20.50;63.10;;;;;;4982399;28;20054;-62
2023/07/21 05:44:04;;;;;;;1.27;1.10;;;20.50;63.00;;;;;;4981171;28;20041;-67
2023/07/21 05:46:29;;;;;;;2.30;1.45;;;20.50;63.30;;;;;;4978007;28;20030;-66
2023/07/21 05:48:55;;;;;;;2.10;1.70;;;20.50;63.30;;;;;;4984518;28;20177;-67
2023/07/21 05:51:21;;;;;;;4.03;1.65;;;20.50;63.40;;;;;;4971777;28;20062;-67
2023/07/21 05:53:46;;;;;;;2.05;1.48;;;20.50;63.30;;;;;;4975240;28;20299;-68
2023/07/21 05:56:12;;;;;;;1.33;1.20;;;20.50;63.30;;;;;;4975983;28;20050;-68
2023/07/21 05:58:38;;;;;;;1.83;1.67;;;20.50;63.20;;;;;;4993679;28;20027;-67
2023/07/21 06:01:03;;;;;;;3.08;1.73;;;20.50;63.30;;;;;;4984931;28;20034;-67
2023/07/21 06:03:30;;;;;;;1.35;1.25;;;20.50;63.20;;;;;;4973326;28;20118;-66
2023/07/21 06:05:56;;;;;;;2.20;2.00;;;20.50;63.80;;;;;;4982511;28;20108;-67
2023/07/21 06:08:24;;;;;;;1.92;1.73;;;20.50;63.40;;;;;;4986565;28;20050;-66
2023/07/21 06:10:50;;;;;;;1.95;1.73;;;20.50;63.30;;;;;;4984752;28;20599;-67
2023/07/21 06:13:16;;;;;;;2.22;1.92;;;20.50;63.70;;;;;;4979721;28;20023;-64
2023/07/21 06:15:41;;;;;;;2.28;1.30;;;20.50;63.80;;;;;;4989785;28;20049;-67
2023/07/21 06:18:07;;;;;;;1.52;1.42;;;20.50;63.90;;;;;;4999734;28;20105;-66
2023/07/21 06:20:32;;;;;;;2.58;1.58;;;20.50;63.90;;;;;;4979514;28;20022;-63
2023/07/21 06:22:58;;;;;;;2.22;2.03;;;20.50;63.60;;;;;;4989145;28;20026;-66
2023/07/21 06:25:24;;;;;;;2.15;1.85;;;20.50;63.30;;;;;;4981638;28;20026;-64
2023/07/21 06:27:50;;;;;;;2.55;1.63;;;20.50;63.30;;;;;;5000098;28;20374;-66
2023/07/21 06:30:16;;;;;;;1.60;1.50;;;20.60;63.10;;;;;;4995550;28;20046;-67
2023/07/21 06:32:42;;;;;;;1.80;1.70;;;20.60;63.10;;;;;;4974169;28;22170;-67
2023/07/21 06:35:09;;;;;;;1.70;1.60;;;20.60;63.20;;;;;;4991471;28;20467;-67
2023/07/21 06:37:34;;;;;;;1.95;1.80;;;20.60;63.20;;;;;;4971896;28;20050;-67
2023/07/21 06:40:01;;;;;;;2.35;1.88;;;20.60;63.00;;;;;;5001630;28;20568;-67
2023/07/21 06:42:27;;;;;;;2.15;1.95;;;20.60;63.10;;;;;;4988890;28;20029;-66
2023/07/21 06:44:52;;;;;;;1.60;1.50;;;20.60;63.10;;;;;;4978006;28;20014;-66
2023/07/21 06:47:19;;;;;;;2.40;1.90;;;20.60;62.70;;;;;;4980492;28;20038;-67
2023/07/21 06:49:45;;;;;;;1.63;1.52;;;20.60;62.60;;;;;;4988745;28;20069;-67
2023/07/21 06:52:10;;;;;;;3.05;1.58;;;20.60;62.70;;;;;;4981845;28;20058;-67
2023/07/21 06:54:38;;;;;;;1.88;1.77;;;20.60;62.90;;;;;;4980624;28;20042;-64
2023/07/21 06:57:05;;;;;;;2.00;1.83;;;20.70;62.80;;;;;;4974920;28;20039;-66
2023/07/21 06:59:30;;;;;;;2.08;1.60;;;20.70;62.50;;;;;;4979803;28;20183;-66
2023/07/21 07:01:57;;;;;;;1.70;1.60;;;20.70;62.50;;;;;;4997116;28;20030;-67
2023/07/21 07:04:23;;;;;;;2.80;1.67;;;20.70;62.40;;;;;;4991434;28;20038;-67
2023/07/21 07:06:48;;;;;;;3.17;1.80;;;20.70;62.20;;;;;;4976806;28;20307;-67
2023/07/21 07:09:14;;;;;;;1.60;1.42;;;20.70;62.50;;;;;;4986803;28;20049;-67
2023/07/21 07:11:40;;;;;;;1.85;1.73;;;20.70;62.50;;;;;;4977512;28;20121;-67
2023/07/21 07:14:05;;;;;;;1.45;1.35;;;20.70;62.60;;;;;;4976588;28;20138;-67
2023/07/21 07:16:31;;;;;;;1.95;1.85;;;20.80;62.70;;;;;;4980415;28;20573;-67
2023/07/21 07:18:56;;;;;;;1.73;1.63;;;20.80;62.60;;;;;;4982532;28;20548;-67
2023/07/21 07:21:22;;;;;;;1.60;1.50;;;20.80;62.70;;;;;;4981214;28;20041;-66
2023/07/21 07:23:48;;;;;;;2.10;1.60;;;20.80;62.10;;;;;;4975899;28;20049;-65
2023/07/21 07:26:13;;;;;;;1.63;1.40;;;20.80;62.30;;;;;;4982283;28;20113;-66
2023/07/21 07:28:39;;;;;;;2.40;1.52;;;20.80;62.60;;;;;;4985757;28;20595;-66
2023/07/21 07:31:05;;;;;;;1.58;1.40;;;20.70;62.80;;;;;;4988680;28;20050;-67
2023/07/21 07:33:31;;;;;;;1.55;1.45;;;20.70;62.80;;;;;;4977399;28;20554;-67
2023/07/21 07:35:57;;;;;;;2.20;1.80;;;20.70;62.80;;;;;;4982590;28;20042;-67
2023/07/21 07:38:28;;;;;;;1.85;1.60;;;20.70;62.80;;;;;;4988266;28;20030;-66
2023/07/21 07:40:59;;;;;;;2.05;1.33;;;20.70;63.00;;;;;;4973732;28;20114;-67
2023/07/21 07:43:24;;;;;;;1.80;1.70;;;20.70;63.10;;;;;;4985688;28;20484;-67
2023/07/21 07:45:50;;;;;;;3.45;1.67;;;20.70;62.80;;;;;;4992713;28;20121;-66
2023/07/21 07:48:16;;;;;;;3.97;1.83;;;20.70;62.90;;;;;;4995309;28;20030;-66
2023/07/21 07:50:42;;;;;;;3.28;1.58;;;20.70;62.70;;;;;;4985206;28;20022;-67
2023/07/21 07:53:08;;;;;;;1.50;1.40;;;20.70;62.30;;;;;;4988089;28;20096;-67
2023/07/21 07:55:41;;;;;;;1.95;1.80;;;20.70;62.60;;;;;;5001660;28;20033;-66
2023/07/21 07:58:08;;;;;;;2.05;1.65;;;20.80;61.50;;;;;;4985225;28;20057;-64
2023/07/21 08:00:36;;;;;;;1.67;1.58;;;20.80;62.20;;;;;;4992492;28;20034;-66
2023/07/21 08:03:05;;;;;;;1.77;1.65;;;20.80;62.30;;;;;;4984219;28;20037;-66
2023/07/21 08:05:32;;;;;;;1.92;1.35;;;20.80;62.50;;;;;;4981196;28;20504;-67
2023/07/21 08:08:01;;;;;;;1.65;1.55;;;20.80;62.60;;;;;;4995310;28;20524;-68
2023/07/21 08:10:28;;;;;;;1.58;1.48;;;20.80;61.60;;;;;;5002143;28;20034;-66
2023/07/21 08:12:55;;;;;;;2.30;2.08;;;20.80;61.30;;;;;;4983881;28;20057;-67
2023/07/21 08:15:21;;;;;;;1.95;1.70;;;20.90;61.20;;;;;;4986281;28;20050;-66
2023/07/21 08:17:47;;;;;;;2.53;1.83;;;20.90;61.00;;;;;;4978980;28;20374;-65
2023/07/21 08:20:12;;;;;;;2.10;1.90;;;20.90;61.00;;;;;;4986330;28;20030;-65
2023/07/21 08:22:38;;;;;;;1.77;1.60;;;20.80;61.80;;;;;;4984789;28;20027;-67
2023/07/21 08:25:05;;;;;;;1.48;1.38;;;20.80;61.90;;;;;;4987090;28;20109;-64
2023/07/21 08:27:34;;;;;;;2.15;1.83;;;20.80;62.20;;;;;;4984852;28;20029;-65
2023/07/21 08:29:59;;;;;;;2.30;2.03;;;20.80;62.20;;;;;;4982962;28;20057;-66
2023/07/21 08:32:25;;;;;;;1.80;1.70;;;20.80;61.40;;;;;;4977048;28;20697;-67
2023/07/21 08:34:50;;;;;;;1.90;1.80;;;20.80;61.40;;;;;;4984717;28;20039;-67
2023/07/21 08:37:16;;;;;;;2.58;2.13;;;20.80;61.90;;;;;;4981453;28;20037;-67
2023/07/21 08:39:42;;;;;;;2.25;2.05;;;20.80;62.30;;;;;;4989858;28;20105;-63
2023/07/21 08:42:12;;;;;;;2.03;1.33;;;20.80;62.10;;;;;;4980072;28;20038;-63
2023/07/21 08:44:38;;;;;;;1.65;1.55;;;20.80;62.30;;;;;;4992534;28;20031;-66
2023/07/21 08:47:04;;;;;;;4.30;1.73;;;20.70;61.80;;;;;;4992331;28;20038;-66
2023/07/21 08:49:30;;;;;;;2.13;1.67;;;20.80;61.70;;;;;;4981757;28;20101;-67
2023/07/21 08:51:55;;;;;;;2.28;1.73;;;20.80;61.70;;;;;;4988936;28;20061;-68
2023/07/21 08:54:21;;;;;;;3.30;1.75;;;20.80;62.20;;;;;;4994292;28;20409;-64
2023/07/21 08:56:46;;;;;;;2.55;1.70;;;20.70;62.10;;;;;;4983049;28;21230;-67
2023/07/21 08:59:12;;;;;;;2.75;2.05;;;20.70;62.10;;;;;;4983828;28;20066;-66
2023/07/21 09:01:37;;;;;;;2.17;1.98;;;20.70;62.50;;;;;;4992495;28;20088;-64
2023/07/21 09:04:19;;;;;;;3.38;2.10;;;20.70;62.60;;;;;;4985992;28;20287;-65
2023/07/21 09:06:56;;;;;;;3.15;2.05;;;20.60;62.50;;;;;;4984904;28;20031;-67
2023/07/21 09:09:24;;;;;;;2.15;1.90;;;20.60;62.40;;;;;;4970692;28;20038;-67
2023/07/21 09:11:58;;;;;;;2.15;1.95;;;20.60;62.40;;;;;;4971116;28;20700;-67
2023/07/21 09:14:37;;;;;;;3.78;2.17;;;20.60;62.40;;;;;;4974400;28;20031;-66
2023/07/21 09:17:05;;;;;;;1.85;1.75;;;20.60;62.20;;;;;;4959470;28;20041;-66
2023/07/21 09:19:34;;;;;;;2.25;1.88;;;20.60;62.40;;;;;;4977105;28;20117;-67
2023/07/21 09:22:00;;;;;;;2.55;1.92;;;20.60;62.10;;;;;;4979395;28;20502;-67
2023/07/21 09:24:25;;;;;;;2.70;1.88;;;20.60;62.30;;;;;;4976739;28;20041;-66
2023/07/21 09:27:10;;;;;;;2.50;2.22;;;20.60;62.40;;;;;;4970723;28;20045;-66
2023/07/21 09:29:36;;;;;;;2.38;2.17;;;20.60;62.20;;;;;;4973590;28;20037;-65
2023/07/21 09:32:03;;;;;;;4.03;2.00;;;20.60;62.00;;;;;;4978053;28;20042;-67
2023/07/21 09:34:29;;;;;;;2.10;1.90;;;20.60;62.10;;;;;;4970677;28;20050;-67
2023/07/21 09:36:54;;;;;;;3.05;2.40;;;20.60;62.10;;;;;;4982718;28;20069;-67
2023/07/21 09:39:20;;;;;;;4.38;2.47;;;20.60;62.10;;;;;;4965041;28;20405;-66
2023/07/21 09:41:48;;;;;;;2.22;2.00;;;20.60;61.90;;;;;;4974112;28;20089;-65
2023/07/21 09:44:16;;;;;;;2.10;1.90;;;20.60;61.80;;;;;;4968529;28;20122;-66
2023/07/21 09:46:42;;;;;;;2.20;2.00;;;20.60;61.60;;;;;;4961387;28;20269;-67
2023/07/21 09:49:07;;;;;;;3.60;2.10;;;20.60;62.00;;;;;;4978573;28;20046;-67
2023/07/21 09:51:37;;;;;;;3.00;2.15;;;20.60;61.90;;;;;;4969217;28;20138;-68
2023/07/21 09:54:04;;;;;;;2.33;2.13;;;20.60;61.50;;;;;;4967556;28;20053;-67
2023/07/21 09:56:36;;;;;;;3.95;2.05;;;20.60;61.60;;;;;;4974709;28;20031;-66
2023/07/21 09:59:05;;;;;;;4.53;2.00;;;20.60;61.90;;;;;;4948723;28;20126;-67
2023/07/21 10:01:32;;;;;;;2.60;2.30;;;20.60;61.70;;;;;;4974424;28;20089;-67
2023/07/21 10:03:58;;;;;;;2.28;2.08;;;20.60;61.90;;;;;;4959545;28;20043;-67
2023/07/21 10:06:25;;;;;;;2.20;2.00;;;20.50;61.90;;;;;;4974191;28;20477;-67
2023/07/21 10:08:52;;;;;;;2.22;2.03;;;20.50;61.80;;;;;;4970020;28;20035;-67
2023/07/21 10:11:18;;;;;;;2.22;2.03;;;20.60;61.00;;;;;;4969128;28;20045;-66
2023/07/21 10:13:45;;;;;;;2.50;2.22;;;20.60;61.30;;;;;;4984061;28;20030;-67
2023/07/21 10:16:11;;;;;;;2.50;2.22;;;20.50;61.20;;;;;;4963745;28;20703;-67
2023/07/21 10:19:03;;;;;;;2.22;2.03;;;20.60;61.30;;;;;;4975800;28;20525;-67
2023/07/21 10:21:49;;;;;;;2.50;1.98;;;20.50;61.30;;;;;;4973150;28;20134;-66
2023/07/21 10:24:21;;;;;;;;;;;20.50;61.20;;;;;;4965458;28;20078;-67
2023/07/21 10:26:52;;;;;;;2.40;2.20;;;20.50;61.20;;;;;;4968528;28;20021;-67
2023/07/21 10:29:17;;;;;;;3.03;2.72;;;20.50;61.40;;;;;;4973677;28;20038;-68
2023/07/21 10:31:54;;;;;;;3.13;2.25;;;20.50;61.50;;;;;;4979020;28;20323;-64
2023/07/21 10:34:24;;;;;;;2.67;2.35;;;20.50;61.40;;;;;;4977171;28;20054;-67
2023/07/21 10:36:53;;;;;;;3.25;2.58;;;20.50;61.20;;;;;;4978158;28;20034;-67
2023/07/21 10:39:22;;;;;;;4.72;2.90;;;20.50;61.50;;;;;;4981505;28;20039;-66
2023/07/21 10:41:48;;;;;;;3.95;2.92;;;20.50;61.50;;;;;;4966168;28;20527;-67
2023/07/21 10:44:15;;;;;;;5.00;3.42;;;20.60;61.50;;;;;;4983926;28;20461;-68
2023/07/21 10:46:42;;;;;;;4.53;3.13;;;20.60;61.70;;;;;;4980655;28;20058;-67
2023/07/21 10:49:09;;;;;;;5.10;3.30;;;20.60;61.60;;;;;;4981313;28;20042;-68
2023/07/21 10:51:37;;;;;;;3.85;3.05;;;20.50;60.90;;;;;;4980921;28;20046;-66
2023/07/21 10:54:03;;;;;;;5.22;2.95;;;20.60;61.00;;;;;;4971689;28;20043;-67
2023/07/21 10:56:29;;;;;;;6.63;4.05;;;20.60;60.70;;;;;;4978060;28;20054;-67
2023/07/21 10:58:55;;;;;;;5.57;3.63;;;20.60;60.90;;;;;;4976266;28;20070;-67
2023/07/21 11:01:21;;;;;;;3.88;3.28;;;20.60;61.00;;;;;;4967907;28;20155;-64
2023/07/21 11:03:48;;;;;;;4.53;3.22;;;20.50;61.00;;;;;;4969620;28;20054;-67
2023/07/21 11:06:14;;;;;;;3.30;2.53;;;20.50;60.20;;;;;;4967308;28;20053;-67
2023/07/21 11:08:40;;;;;;;3.65;2.55;;;20.50;60.90;;;;;;4980397;28;20553;-68
2023/07/21 11:11:07;;;;;;;4.03;2.92;;;20.50;60.90;;;;;;4981421;28;20129;-67
2023/07/21 11:13:33;;;;;;;4.97;2.63;;;20.50;60.80;;;;;;4976279;28;20029;-66
2023/07/21 11:16:00;;;;;;;3.17;2.70;;;20.50;60.80;;;;;;4963016;28;20397;-67
2023/07/21 11:18:28;;;;;;;3.15;2.63;;;20.50;60.90;;;;;;4972517;28;20030;-67
2023/07/21 11:20:54;;;;;;;3.65;2.38;;;20.40;60.90;;;;;;4965293;28;20030;-68
2023/07/21 11:23:24;;;;;;;3.05;2.40;;;20.50;61.00;;;;;;4967388;28;20121;-67
2023/07/21 11:26:00;;;;;;;4.18;2.15;;;20.40;60.90;;;;;;4990398;28;20136;-67
2023/07/21 11:28:25;;;;;;;2.95;2.50;;;20.40;60.80;;;;;;4978449;28;20030;-68
2023/07/21 11:30:51;;;;;;;3.88;2.80;;;20.40;60.90;;;;;;4966182;28;20100;-65
2023/07/21 11:33:16;;;;;;;3.35;2.30;;;20.40;61.20;;;;;;4983075;28;20033;-67
2023/07/21 11:35:48;;;;;;;2.83;2.42;;;20.40;61.20;;;;;;4979798;28;20034;-68
2023/07/21 11:38:14;;;;;;;2.40;2.20;;;20.40;61.20;;;;;;4984109;28;20398;-67
2023/07/21 11:40:40;;;;;;;3.55;2.67;;;20.40;61.20;;;;;;4975406;28;20098;-67
2023/07/21 11:43:07;;;;;;;2.83;2.30;;;20.40;61.20;;;;;;4981040;28;20023;-67
2023/07/21 11:45:39;;;;;;;3.67;2.17;;;20.40;61.10;;;;;;4973576;28;20023;-69
2023/07/21 11:48:20;;;;;;;3.13;2.13;;;20.30;61.00;;;;;;4981136;28;20057;-62
2023/07/21 11:50:54;;;;;;;2.95;2.60;;;20.40;61.00;;;;;;4968895;28;20417;-67
2023/07/21 11:53:22;;;;;;;2.55;2.05;;;20.40;61.10;;;;;;4974213;28;20083;-65
2023/07/21 11:55:48;;;;;;;2.88;2.20;;;20.30;61.10;;;;;;4980920;28;20101;-65
2023/07/21 11:58:14;;;;;;;3.35;1.88;;;20.40;61.10;;;;;;4980012;28;20440;-67
2023/07/21 12:00:41;;;;;;;3.80;1.95;;;20.40;61.30;;;;;;4980996;28;20296;-67
2023/07/21 12:03:08;;;;;;;2.35;2.15;;;20.40;61.50;;;;;;4977261;28;20023;-67
2023/07/21 12:05:33;;;;;;;2.22;1.80;;;20.40;61.60;;;;;;4973891;28;20458;-65
2023/07/21 12:07:59;;;;;;;4.35;1.90;;;20.30;61.90;;;;;;4981270;28;20030;-67
2023/07/21 12:10:25;;;;;;;1.92;1.77;;;20.40;61.60;;;;;;4963665;28;20042;-67
2023/07/21 12:12:52;;;;;;;2.13;1.92;;;20.40;61.60;;;;;;4976523;28;20030;-67
2023/07/21 12:15:18;;;;;;;2.28;2.08;;;20.40;61.70;;;;;;4978455;28;20031;-67
2023/07/21 12:17:44;;;;;;;2.60;1.88;;;20.40;61.70;;;;;;4982973;28;20093;-67
2023/07/21 12:20:13;;;;;;;2.08;1.92;;;20.40;61.70;;;;;;4972824;28;20023;-67
2023/07/21 12:22:39;;;;;;;1.85;1.67;;;20.40;61.70;;;;;;4969017;28;20031;-67
2023/07/21 12:25:06;;;;;;;1.98;1.80;;;20.40;62.40;;;;;;4976152;28;20034;-67
2023/07/21 12:27:32;;;;;;;2.20;1.50;;;20.40;61.70;;;;;;4968965;28;20532;-67
2023/07/21 12:29:57;;;;;;;2.30;1.88;;;20.40;61.60;;;;;;4978713;28;20034;-67
2023/07/21 12:32:23;;;;;;;2.22;1.65;;;20.40;61.70;;;;;;4960328;28;20402;-66
2023/07/21 12:34:48;;;;;;;2.33;1.95;;;20.40;61.60;;;;;;4984033;28;20022;-66
2023/07/21 12:37:14;;;;;;;1.67;1.58;;;20.40;61.60;;;;;;4988350;28;20229;-67
2023/07/21 12:39:40;;;;;;;2.45;1.70;;;20.30;61.70;;;;;;4970569;28;20042;-67
2023/07/21 12:42:07;;;;;;;2.00;1.67;;;20.30;61.60;;;;;;4974516;28;20620;-67
2023/07/21 12:44:33;;;;;;;1.83;1.45;;;20.40;61.70;;;;;;4974235;28;20539;-67
2023/07/21 12:46:58;;;;;;;2.17;1.80;;;20.40;61.80;;;;;;4983824;28;20026;-67